Time;durP1;ratioP1;P1;durP2;ratioP2;P2;SDS_P1;SDS_P2;PMS_P1;PMS_P2;Temp;Humidity;BMP_temperature;BMP_pressure;BME280_temperature;BME280_humidity;BME280_pressure;Samples;Min_cycle;Max_cycle;Signal;HPM_P1;HPM_P2
2023/07/21 00:00:59;;;;;;;1.00;1.00;;;;;;;;;;6261700;28;20232;-76
2023/07/21 00:04:03;;;;;;;1.48;1.38;;;;;;;;;;6260661;28;20425;-75
2023/07/21 00:07:07;;;;;;;1.00;1.00;;;;;;;;;;6261683;28;20505;-75
2023/07/21 00:10:12;;;;;;;1.10;1.10;;;;;;;;;;6260926;28;20240;-75
2023/07/21 00:13:17;;;;;;;2.10;1.20;;;;;;;;;;6261105;28;20260;-75
2023/07/21 00:16:21;;;;;;;1.50;1.50;;;;;;;;;;6261021;28;20245;-75
2023/07/21 00:19:24;;;;;;;1.23;1.20;;;;;;;;;;6259090;28;20271;-75
2023/07/21 00:22:29;;;;;;;1.75;1.17;;;;;;;;;;6261162;28;20365;-77
2023/07/21 00:25:33;;;;;;;0.98;0.98;;;;;;;;;;6261283;28;20240;-76
2023/07/21 00:28:38;;;;;;;1.00;1.00;;;;;;;;;;6261273;28;20240;-75
2023/07/21 00:31:46;;;;;;;0.93;0.93;;;;;;;;;;6242427;28;20279;-75
2023/07/21 00:34:52;;;;;;;0.95;0.95;;;;;;;;;;6260078;28;20533;-75
2023/07/21 00:38:01;;;;;;;1.00;1.00;;;;;;;;;;6261108;28;20244;-75
2023/07/21 00:41:04;;;;;;;0.90;0.90;;;;;;;;;;6261053;28;20240;-75
2023/07/21 00:44:10;;;;;;;1.55;1.00;;;;;;;;;;6259183;28;20272;-75
2023/07/21 00:47:14;;;;;;;0.93;0.93;;;;;;;;;;6258896;28;20271;-75
2023/07/21 00:50:18;;;;;;;0.90;0.90;;;;;;;;;;6258916;28;20552;-75
2023/07/21 00:53:24;;;;;;;0.98;0.98;;;;;;;;;;6260447;28;20291;-75
2023/07/21 00:56:28;;;;;;;3.80;1.27;;;;;;;;;;6260589;28;20319;-75
2023/07/21 00:59:33;;;;;;;1.15;1.00;;;;;;;;;;6263342;28;20454;-76
2023/07/21 01:06:55;;;;;;;1.10;1.10;;;;;;;;;;6336232;28;20282;-75
2023/07/21 01:09:59;;;;;;;1.00;1.00;;;;;;;;;;6318911;28;20239;-75
2023/07/21 01:13:03;;;;;;;1.20;1.20;;;;;;;;;;6324391;28;20262;-75
2023/07/21 01:16:10;;;;;;;1.40;1.30;;;;;;;;;;6339130;28;20393;-75
2023/07/21 01:19:15;;;;;;;0.90;0.90;;;;;;;;;;6338032;28;20274;-75
2023/07/21 01:22:23;;;;;;;1.00;1.00;;;;;;;;;;6322581;28;20486;-75
2023/07/21 01:25:29;;;;;;;0.80;0.80;;;;;;;;;;6313879;28;20240;-75
2023/07/21 01:28:33;;;;;;;1.75;1.35;;;;;;;;;;6312628;28;20310;-75
2023/07/21 01:31:38;;;;;;;1.10;1.00;;;;;;;;;;6312584;28;20270;-74
2023/07/21 01:34:44;;;;;;;0.82;0.75;;;;;;;;;;6313802;28;20267;-74
2023/07/21 01:37:49;;;;;;;1.30;0.70;;;;;;;;;;6315587;28;20282;-75
2023/07/21 01:40:54;;;;;;;0.85;0.85;;;;;;;;;;6336709;28;20269;-75
2023/07/21 01:43:58;;;;;;;1.65;0.80;;;;;;;;;;6338339;28;20428;-75
2023/07/21 01:47:04;;;;;;;0.57;0.57;;;;;;;;;;6337004;28;20266;-75
2023/07/21 01:50:13;;;;;;;0.68;0.68;;;;;;;;;;6338688;28;20238;-75
2023/07/21 01:53:21;;;;;;;1.00;0.65;;;;;;;;;;6338589;28;20262;-75
2023/07/21 01:56:31;;;;;;;0.75;0.75;;;;;;;;;;6337145;28;20452;-74
2023/07/21 01:59:35;;;;;;;2.53;0.90;;;;;;;;;;6336850;28;20265;-75
2023/07/21 02:02:39;;;;;;;0.80;0.80;;;;;;;;;;6336815;28;20470;-74
2023/07/21 02:05:43;;;;;;;1.35;0.70;;;;;;;;;;6288125;28;20488;-75
2023/07/21 02:08:47;;;;;;;0.70;0.70;;;;;;;;;;6286108;28;20451;-75
2023/07/21 02:11:52;;;;;;;1.38;0.60;;;;;;;;;;6287985;28;20256;-74
2023/07/21 02:15:17;;;;;;;0.77;0.77;;;;;;;;;;6287039;28;20291;-74
2023/07/21 02:18:20;;;;;;;1.95;0.50;;;;;;;;;;6287498;28;20331;-75
2023/07/21 02:21:24;;;;;;;0.85;0.85;;;;;;;;;;6286707;28;20302;-75
2023/07/21 02:24:28;;;;;;;0.80;0.80;;;;;;;;;;6286455;28;20279;-74
2023/07/21 02:27:34;;;;;;;1.38;0.68;;;;;;;;;;6286427;28;20275;-75
2023/07/21 02:30:39;;;;;;;0.55;0.55;;;;;;;;;;6286265;28;20279;-75
2023/07/21 02:33:43;;;;;;;1.10;0.70;;;;;;;;;;6286239;28;20295;-74
2023/07/21 02:36:47;;;;;;;1.30;0.73;;;;;;;;;;6286291;28;20275;-74
2023/07/21 02:39:51;;;;;;;0.70;0.70;;;;;;;;;;6287496;28;20235;-75
2023/07/21 02:42:56;;;;;;;2.42;0.65;;;;;;;;;;6287476;28;20239;-75
2023/07/21 02:46:00;;;;;;;1.23;1.13;;;;;;;;;;6287445;28;20243;-75
2023/07/21 02:49:05;;;;;;;0.70;0.70;;;;;;;;;;6285883;28;20543;-75
2023/07/21 02:52:09;;;;;;;2.90;0.80;;;;;;;;;;6286253;28;20263;-75
2023/07/21 02:55:14;;;;;;;2.17;1.00;;;;;;;;;;6285643;28;20295;-75
2023/07/21 02:58:20;;;;;;;1.20;0.88;;;;;;;;;;6285395;28;20282;-75
2023/07/21 03:01:24;;;;;;;1.85;0.80;;;;;;;;;;6287092;28;20236;-75
2023/07/21 03:04:31;;;;;;;0.80;0.80;;;;;;;;;;6299896;28;20307;-75
2023/07/21 03:07:39;;;;;;;0.73;0.73;;;;;;;;;;6310299;28;20266;-75
2023/07/21 03:10:43;;;;;;;2.58;0.80;;;;;;;;;;6310441;28;20268;-74
2023/07/21 03:13:52;;;;;;;0.98;0.90;;;;;;;;;;6329206;28;20277;-74
2023/07/21 03:16:55;;;;;;;0.70;0.70;;;;;;;;;;6335379;28;20266;-74
2023/07/21 03:20:00;;;;;;;3.20;0.70;;;;;;;;;;6334933;28;20266;-76
2023/07/21 03:23:07;;;;;;;1.30;0.80;;;;;;;;;;6335055;28;20270;-74
2023/07/21 03:26:11;;;;;;;0.68;0.68;;;;;;;;;;6335466;28;20278;-75
2023/07/21 03:29:20;;;;;;;1.42;1.00;;;;;;;;;;6336930;28;20254;-74
2023/07/21 03:32:25;;;;;;;1.05;1.00;;;;;;;;;;6334791;28;20341;-75
2023/07/21 03:35:29;;;;;;;2.17;1.13;;;;;;;;;;6334599;28;20565;-74
2023/07/21 03:38:35;;;;;;;6.78;1.30;;;;;;;;;;6334163;28;20346;-76
2023/07/21 03:41:39;;;;;;;4.32;1.52;;;;;;;;;;6336213;28;20251;-75
2023/07/21 03:44:49;;;;;;;1.63;1.20;;;;;;;;;;6334319;28;20289;-74
2023/07/21 03:47:53;;;;;;;1.00;1.00;;;;;;;;;;6334568;28;20261;-74
2023/07/21 03:50:58;;;;;;;1.08;1.08;;;;;;;;;;6334598;28;20380;-74
2023/07/21 03:54:04;;;;;;;1.35;1.00;;;;;;;;;;6334872;28;20289;-75
2023/07/21 03:57:09;;;;;;;1.48;1.13;;;;;;;;;;6334517;28;20270;-75
2023/07/21 04:00:15;;;;;;;1.17;1.17;;;;;;;;;;6334002;28;20269;-74
2023/07/21 04:03:19;;;;;;;2.42;1.05;;;;;;;;;;6334040;28;20294;-74
2023/07/21 04:06:24;;;;;;;1.08;1.08;;;;;;;;;;6334242;28;20266;-75
2023/07/21 04:09:29;;;;;;;4.65;1.30;;;;;;;;;;6334069;28;20266;-74
2023/07/21 04:12:33;;;;;;;2.20;1.17;;;;;;;;;;6325479;28;20275;-74
2023/07/21 04:15:39;;;;;;;4.78;1.00;;;;;;;;;;6308596;28;20282;-75
2023/07/21 04:18:43;;;;;;;1.38;1.25;;;;;;;;;;6309134;28;20274;-75
2023/07/21 04:21:47;;;;;;;2.78;1.40;;;;;;;;;;6308827;28;20263;-74
2023/07/21 04:24:51;;;;;;;1.90;1.20;;;;;;;;;;6309151;28;20275;-74
2023/07/21 04:27:56;;;;;;;5.25;1.23;;;;;;;;;;6309081;28;20274;-74
2023/07/21 04:31:01;;;;;;;1.92;1.70;;;;;;;;;;6309025;28;20270;-74
2023/07/21 04:34:12;;;;;;;2.67;1.48;;;;;;;;;;6313954;28;20266;-74
2023/07/21 04:37:19;;;;;;;1.50;1.40;;;;;;;;;;6313534;28;20267;-74
2023/07/21 04:40:28;;;;;;;5.95;1.65;;;;;;;;;;6313710;28;20275;-75
2023/07/21 04:43:32;;;;;;;1.60;1.50;;;;;;;;;;6313614;28;20458;-74
2023/07/21 04:46:37;;;;;;;4.40;1.60;;;;;;;;;;6313624;28;20342;-74
2023/07/21 04:49:41;;;;;;;3.33;1.65;;;;;;;;;;6313418;28;20274;-74
2023/07/21 04:52:46;;;;;;;7.15;1.80;;;;;;;;;;6313342;28;20266;-74
2023/07/21 04:55:50;;;;;;;3.65;1.83;;;;;;;;;;6312869;28;20290;-74
2023/07/21 04:58:54;;;;;;;3.20;1.88;;;;;;;;;;6313162;28;20437;-74
2023/07/21 05:01:59;;;;;;;4.93;1.80;;;;;;;;;;6314170;28;20531;-74
2023/07/21 05:05:04;;;;;;;2.50;1.73;;;;;;;;;;6312409;28;20477;-74
2023/07/21 05:08:12;;;;;;;4.63;1.77;;;;;;;;;;6312655;28;20347;-74
2023/07/21 05:11:15;;;;;;;2.10;1.88;;;;;;;;;;6313862;28;20239;-74
2023/07/21 05:14:19;;;;;;;6.10;2.20;;;;;;;;;;6335727;28;20270;-74
2023/07/21 05:17:44;;;;;;;3.67;1.90;;;;;;;;;;6337923;28;20262;-74
2023/07/21 05:20:51;;;;;;;4.95;2.10;;;;;;;;;;6347555;28;20275;-74
2023/07/21 05:24:07;;;;;;;3.85;1.90;;;;;;;;;;6337341;28;20262;-75
2023/07/21 05:27:10;;;;;;;6.28;1.90;;;;;;;;;;6337906;28;20261;-74
2023/07/21 05:30:22;;;;;;;5.25;2.10;;;;;;;;;;6337805;28;20269;-74
2023/07/21 05:33:30;;;;;;;4.38;1.77;;;;;;;;;;6337371;28;20277;-74
2023/07/21 05:36:37;;;;;;;4.15;1.67;;;;;;;;;;6337320;28;20577;-74
2023/07/21 05:39:41;;;;;;;6.85;2.17;;;;;;;;;;6337070;28;20278;-74
2023/07/21 05:42:47;;;;;;;4.22;2.22;;;;;;;;;;6336719;28;20269;-74
2023/07/21 05:45:51;;;;;;;5.63;2.15;;;;;;;;;;6336535;28;20274;-74
2023/07/21 05:48:57;;;;;;;5.00;2.13;;;;;;;;;;6336444;28;20329;-74
2023/07/21 05:52:01;;;;;;;6.25;2.20;;;;;;;;;;6337913;28;20408;-74
2023/07/21 05:55:12;;;;;;;5.57;2.20;;;;;;;;;;6336818;28;20269;-74
2023/07/21 05:58:15;;;;;;;5.40;2.03;;;;;;;;;;6337007;28;20265;-74
2023/07/21 06:01:20;;;;;;;2.10;1.90;;;;;;;;;;6336858;28;20266;-74
2023/07/21 06:04:26;;;;;;;5.75;1.92;;;;;;;;;;6338073;28;20289;-74
2023/07/21 06:07:51;;;;;;;7.93;2.47;;;;;;;;;;6336664;28;20270;-74
2023/07/21 06:11:15;;;;;;;2.60;2.05;;;;;;;;;;6330458;28;20270;-74
2023/07/21 06:14:26;;;;;;;7.80;2.70;;;;;;;;;;6311596;28;20428;-73
2023/07/21 06:17:34;;;;;;;5.75;2.35;;;;;;;;;;6310792;28;20289;-74
2023/07/21 06:20:40;;;;;;;8.88;2.50;;;;;;;;;;6312243;28;20227;-74
2023/07/21 06:23:44;;;;;;;8.82;2.42;;;;;;;;;;6312679;28;20247;-74
2023/07/21 06:26:47;;;;;;;3.88;2.20;;;;;;;;;;6312035;28;20234;-73
2023/07/21 06:29:53;;;;;;;6.82;2.10;;;;;;;;;;6311066;28;20558;-74
2023/07/21 06:33:00;;;;;;;4.60;2.45;;;;;;;;;;6311258;28;20412;-74
2023/07/21 06:36:35;;;;;;;9.43;2.60;;;;;;;;;;6316036;28;20299;-74
2023/07/21 06:39:55;;;;;;;5.75;2.40;;;;;;;;;;6311312;28;20266;-74
2023/07/21 06:43:19;;;;;;;8.18;2.10;;;;;;;;;;6321221;28;20270;-74
2023/07/21 06:46:39;;;;;;;2.78;2.05;;;;;;;;;;6310514;28;20282;-75
2023/07/21 06:50:01;;;;;;;3.60;2.45;;;;;;;;;;6320046;28;20235;-75
2023/07/21 06:53:08;;;;;;;3.00;2.03;;;;;;;;;;6310888;28;20350;-75
2023/07/21 06:56:13;;;;;;;5.55;2.58;;;;;;;;;;6309793;28;20291;-76
2023/07/21 06:59:17;;;;;;;3.33;2.40;;;;;;;;;;6310383;28;20270;-75
2023/07/21 07:02:21;;;;;;;4.50;2.45;;;;;;;;;;6310261;28;20270;-74
2023/07/21 07:05:25;;;;;;;2.92;2.28;;;;;;;;;;6309817;28;20305;-74
2023/07/21 07:08:30;;;;;;;8.68;3.03;;;;;;;;;;6311448;28;20239;-74
2023/07/21 07:11:33;;;;;;;5.43;2.15;;;;;;;;;;6311457;28;20327;-74
2023/07/21 07:14:37;;;;;;;2.30;2.08;;;;;;;;;;6336810;28;20235;-76
2023/07/21 07:17:41;;;;;;;4.90;2.50;;;;;;;;;;6335167;28;20315;-75
2023/07/21 07:20:55;;;;;;;5.25;2.22;;;;;;;;;;6336422;28;20306;-75
2023/07/21 07:24:00;;;;;;;5.45;2.33;;;;;;;;;;6336386;28;20238;-75
2023/07/21 07:27:04;;;;;;;4.32;1.92;;;;;;;;;;6335914;28;20246;-75
2023/07/21 07:30:09;;;;;;;3.65;2.47;;;;;;;;;;6336070;28;20242;-76
2023/07/21 07:33:14;;;;;;;2.10;1.90;;;;;;;;;;6336544;28;20234;-75
2023/07/21 07:36:18;;;;;;;7.07;2.10;;;;;;;;;;6336506;28;20270;-75
2023/07/21 07:39:24;;;;;;;3.30;2.42;;;;;;;;;;6336365;28;20242;-75
2023/07/21 07:42:28;;;;;;;2.35;2.03;;;;;;;;;;6334803;28;20518;-74
2023/07/21 07:45:32;;;;;;;4.10;2.20;;;;;;;;;;6336137;28;20238;-76
2023/07/21 07:48:35;;;;;;;4.15;2.45;;;;;;;;;;6336122;28;20253;-75
2023/07/21 07:51:39;;;;;;;3.22;1.92;;;;;;;;;;6336022;28;20292;-75
2023/07/21 07:54:45;;;;;;;3.92;2.00;;;;;;;;;;6335850;28;20409;-75
2023/07/21 07:57:49;;;;;;;4.82;1.90;;;;;;;;;;6335369;28;20446;-75
2023/07/21 08:00:56;;;;;;;3.90;2.00;;;;;;;;;;6335798;28;20234;-75
2023/07/21 08:03:59;;;;;;;6.53;1.92;;;;;;;;;;6335308;28;20302;-75
2023/07/21 08:07:03;;;;;;;3.90;2.22;;;;;;;;;;6334729;28;20527;-75
2023/07/21 08:10:09;;;;;;;2.67;1.80;;;;;;;;;;6335465;28;20427;-74
2023/07/21 08:13:13;;;;;;;51.58;17.95;;;;;;;;;;6321221;28;20411;-75
2023/07/21 08:16:17;;;;;;;5.25;3.35;;;;;;;;;;6310440;28;20248;-73
2023/07/21 08:19:21;;;;;;;6.55;2.22;;;;;;;;;;6309983;28;20255;-73
2023/07/21 08:22:24;;;;;;;3.28;2.00;;;;;;;;;;6310168;28;20243;-74
2023/07/21 08:25:30;;;;;;;3.13;1.85;;;;;;;;;;6310104;28;20234;-74
2023/07/21 08:28:33;;;;;;;2.15;1.92;;;;;;;;;;6309396;28;20278;-75
2023/07/21 08:31:37;;;;;;;2.67;2.28;;;;;;;;;;6310577;28;20238;-75
2023/07/21 08:34:41;;;;;;;2.67;1.70;;;;;;;;;;6310082;28;20243;-75
2023/07/21 08:37:45;;;;;;;5.00;2.03;;;;;;;;;;6309539;28;20262;-75
2023/07/21 08:40:51;;;;;;;3.20;1.88;;;;;;;;;;6310060;28;20431;-75
2023/07/21 08:43:57;;;;;;;11.38;3.15;;;;;;;;;;6309623;28;20516;-75
2023/07/21 08:47:00;;;;;;;7.32;2.53;;;;;;;;;;6309678;28;20247;-75
2023/07/21 08:50:05;;;;;;;3.20;1.77;;;;;;;;;;6309747;28;20536;-75
2023/07/21 08:53:09;;;;;;;4.38;2.10;;;;;;;;;;6310364;28;20243;-75
2023/07/21 08:56:14;;;;;;;4.47;2.00;;;;;;;;;;6310015;28;20543;-75
2023/07/21 08:59:19;;;;;;;5.95;2.35;;;;;;;;;;6309753;28;20267;-74
2023/07/21 09:02:38;;;;;;;7.25;2.03;;;;;;;;;;6309718;28;20259;-74
2023/07/21 09:05:46;;;;;;;4.65;2.10;;;;;;;;;;6308998;28;20370;-74
2023/07/21 09:08:50;;;;;;;1.80;1.70;;;;;;;;;;6309476;28;20244;-74
2023/07/21 09:12:02;;;;;;;4.05;2.47;;;;;;;;;;6309421;28;20239;-75
2023/07/21 09:15:10;;;;;;;3.10;1.90;;;;;;;;;;6309172;28;20240;-75
2023/07/21 09:18:13;;;;;;;4.97;2.35;;;;;;;;;;6310845;28;20262;-75
2023/07/21 09:21:21;;;;;;;2.03;1.90;;;;;;;;;;6313318;28;20251;-75
2023/07/21 09:24:25;;;;;;;3.25;1.98;;;;;;;;;;6314073;28;20235;-75
2023/07/21 09:27:31;;;;;;;2.53;1.73;;;;;;;;;;6314144;28;20242;-73
2023/07/21 09:30:49;;;;;;;3.03;1.98;;;;;;;;;;6313701;28;20244;-74
2023/07/21 09:33:53;;;;;;;1.65;1.58;;;;;;;;;;6313171;28;20239;-74
2023/07/21 09:36:57;;;;;;;2.20;2.00;;;;;;;;;;6313653;28;20239;-74
2023/07/21 09:40:05;;;;;;;2.00;1.67;;;;;;;;;;6312908;28;20262;-75
2023/07/21 09:43:10;;;;;;;2.50;1.77;;;;;;;;;;6311124;28;20287;-73
2023/07/21 09:46:14;;;;;;;2.22;1.70;;;;;;;;;;6312743;28;20244;-74
2023/07/21 09:49:21;;;;;;;3.83;1.65;;;;;;;;;;6311826;28;20289;-74
2023/07/21 09:52:27;;;;;;;1.55;1.45;;;;;;;;;;6313107;28;20235;-74
2023/07/21 09:55:35;;;;;;;1.88;1.77;;;;;;;;;;6312301;28;20242;-74
2023/07/21 09:58:43;;;;;;;1.73;1.60;;;;;;;;;;6312567;28;20262;-74
2023/07/21 10:01:49;;;;;;;2.58;1.70;;;;;;;;;;6312740;28;20243;-74
2023/07/21 10:04:53;;;;;;;3.88;1.88;;;;;;;;;;6312301;28;20286;-74
2023/07/21 10:07:57;;;;;;;1.75;1.67;;;;;;;;;;6312825;28;20251;-74
2023/07/21 10:11:02;;;;;;;3.17;1.92;;;;;;;;;;6312403;28;20242;-74
2023/07/21 10:14:07;;;;;;;2.58;1.80;;;;;;;;;;6334169;28;20250;-75
2023/07/21 10:17:11;;;;;;;2.83;1.88;;;;;;;;;;6337408;28;20317;-74
2023/07/21 10:20:16;;;;;;;1.85;1.70;;;;;;;;;;6337638;28;20270;-73
2023/07/21 10:23:24;;;;;;;1.85;1.67;;;;;;;;;;6337222;28;20230;-73
2023/07/21 10:26:30;;;;;;;1.95;1.80;;;;;;;;;;6336882;28;20238;-73
2023/07/21 10:29:37;;;;;;;2.65;1.58;;;;;;;;;;6336743;28;20230;-73
2023/07/21 10:32:42;;;;;;;2.00;1.90;;;;;;;;;;6337349;28;20238;-74
2023/07/21 10:35:46;;;;;;;2.45;1.60;;;;;;;;;;6337579;28;20238;-75
2023/07/21 10:38:50;;;;;;;9.20;1.80;;;;;;;;;;6337785;28;20274;-74
2023/07/21 10:41:55;;;;;;;2.05;1.83;;;;;;;;;;6337104;28;20337;-74
2023/07/21 10:45:09;;;;;;;4.15;1.70;;;;;;;;;;6336808;28;20243;-74
2023/07/21 10:48:16;;;;;;;2.08;1.98;;;;;;;;;;6336756;28;20246;-77
2023/07/21 10:51:20;;;;;;;1.63;1.50;;;;;;;;;;6336440;28;20238;-74
2023/07/21 10:54:24;;;;;;;1.55;1.45;;;;;;;;;;6336866;28;20239;-74
2023/07/21 10:57:34;;;;;;;2.03;1.90;;;;;;;;;;6336417;28;20290;-74
2023/07/21 11:00:47;;;;;;;6.85;1.67;;;;;;;;;;6336135;28;20456;-74
2023/07/21 11:03:51;;;;;;;2.20;2.10;;;;;;;;;;6336157;28;20294;-74
2023/07/21 11:06:57;;;;;;;2.85;2.40;;;;;;;;;;6336306;28;20239;-75
2023/07/21 11:10:01;;;;;;;2.08;1.98;;;;;;;;;;6336600;28;20238;-76
2023/07/21 11:13:05;;;;;;;4.20;1.90;;;;;;;;;;6323313;28;20259;-75
2023/07/21 11:16:11;;;;;;;1.75;1.65;;;;;;;;;;6310960;28;20248;-76
2023/07/21 11:19:16;;;;;;;1.60;1.50;;;;;;;;;;6310931;28;20258;-74
2023/07/21 11:22:19;;;;;;;1.85;1.75;;;;;;;;;;6310754;28;20242;-74
2023/07/21 11:25:23;;;;;;;2.17;1.85;;;;;;;;;;6310918;28;20396;-76
2023/07/21 11:28:27;;;;;;;2.45;1.83;;;;;;;;;;6311151;28;20235;-74
2023/07/21 11:31:34;;;;;;;1.70;1.60;;;;;;;;;;6311253;28;20240;-73
2023/07/21 11:34:38;;;;;;;6.80;1.75;;;;;;;;;;6310942;28;20239;-74
2023/07/21 11:37:44;;;;;;;1.88;1.77;;;;;;;;;;6310768;28;20238;-74
2023/07/21 11:40:50;;;;;;;1.58;1.52;;;;;;;;;;6310551;28;20443;-75
2023/07/21 11:43:54;;;;;;;3.08;1.70;;;;;;;;;;6310595;28;20235;-75
2023/07/21 11:47:04;;;;;;;5.03;1.73;;;;;;;;;;6310976;28;20554;-75
2023/07/21 11:50:10;;;;;;;5.60;1.77;;;;;;;;;;6310813;28;20239;-75
2023/07/21 11:53:14;;;;;;;1.55;1.55;;;;;;;;;;6310835;28;20235;-75
2023/07/21 11:56:19;;;;;;;1.67;1.58;;;;;;;;;;6310870;28;20243;-75
2023/07/21 11:59:23;;;;;;;2.30;1.50;;;;;;;;;;6310350;28;20345;-74
2023/07/21 12:02:34;;;;;;;4.05;1.55;;;;;;;;;;6310228;28;20254;-74
2023/07/21 12:05:38;;;;;;;1.27;1.17;;;;;;;;;;6310105;28;20295;-75
2023/07/21 12:08:42;;;;;;;3.13;1.30;;;;;;;;;;6310471;28;20538;-75
2023/07/21 12:11:46;;;;;;;1.30;1.30;;;;;;;;;;6312504;28;20243;-75
2023/07/21 12:14:50;;;;;;;1.65;1.30;;;;;;;;;;6335441;28;20243;-74
2023/07/21 12:17:55;;;;;;;1.55;1.35;;;;;;;;;;6335000;28;20234;-74
2023/07/21 12:20:59;;;;;;;1.50;1.40;;;;;;;;;;6334823;28;20266;-75
2023/07/21 12:24:03;;;;;;;2.92;1.30;;;;;;;;;;6335291;28;20246;-74
2023/07/21 12:27:07;;;;;;;1.80;1.70;;;;;;;;;;6335316;28;20249;-74
2023/07/21 12:30:11;;;;;;;1.40;1.40;;;;;;;;;;6335142;28;20422;-74
2023/07/21 12:33:17;;;;;;;3.28;1.67;;;;;;;;;;6335375;28;20348;-74
2023/07/21 12:36:21;;;;;;;1.67;1.58;;;;;;;;;;6334817;28;20243;-74
2023/07/21 12:39:25;;;;;;;1.85;1.65;;;;;;;;;;6334589;28;20266;-74
2023/07/21 12:42:29;;;;;;;1.40;1.30;;;;;;;;;;6334658;28;20286;-74
2023/07/21 12:45:33;;;;;;;1.30;1.30;;;;;;;;;;6335012;28;20238;-74
2023/07/21 12:48:38;;;;;;;4.53;1.35;;;;;;;;;;6334764;28;20245;-74
2023/07/21 12:51:43;;;;;;;1.80;1.70;;;;;;;;;;6334958;28;20247;-74
2023/07/21 12:54:47;;;;;;;2.25;1.35;;;;;;;;;;6339658;28;20234;-75
2023/07/21 12:57:51;;;;;;;5.85;1.40;;;;;;;;;;6339800;28;20293;-74
2023/07/21 13:00:55;;;;;;;2.67;1.60;;;;;;;;;;6339356;28;20550;-74
2023/07/21 13:04:00;;;;;;;2.75;1.60;;;;;;;;;;6339508;28;20294;-75
2023/07/21 13:07:09;;;;;;;1.40;1.30;;;;;;;;;;6339682;28;20238;-74
2023/07/21 13:10:13;;;;;;;1.55;1.45;;;;;;;;;;6338181;28;20265;-75
2023/07/21 13:13:17;;;;;;;1.80;1.75;;;;;;;;;;6324805;28;20405;-76
2023/07/21 13:16:21;;;;;;;3.30;1.60;;;;;;;;;;6314236;28;20235;-75
2023/07/21 13:19:26;;;;;;;1.75;1.65;;;;;;;;;;6313799;28;20418;-74
2023/07/21 13:22:30;;;;;;;1.77;1.58;;;;;;;;;;6314159;28;20235;-73
2023/07/21 13:25:34;;;;;;;1.70;1.60;;;;;;;;;;6314070;28;20235;-74
2023/07/21 13:28:38;;;;;;;1.63;1.50;;;;;;;;;;6312824;28;20270;-74
2023/07/21 13:31:42;;;;;;;1.65;1.65;;;;;;;;;;6313989;28;20243;-75
2023/07/21 13:34:47;;;;;;;2.28;1.50;;;;;;;;;;6314336;28;20242;-75
2023/07/21 13:37:51;;;;;;;2.55;1.52;;;;;;;;;;6313891;28;20266;-75
2023/07/21 13:40:55;;;;;;;2.92;1.40;;;;;;;;;;6313353;28;20271;-75
2023/07/21 13:43:58;;;;;;;1.73;1.60;;;;;;;;;;6313465;28;20238;-75
2023/07/21 13:47:02;;;;;;;3.95;1.60;;;;;;;;;;6313617;28;20235;-74
2023/07/21 13:50:09;;;;;;;1.75;1.45;;;;;;;;;;6313069;28;20263;-75
2023/07/21 13:53:13;;;;;;;1.42;1.33;;;;;;;;;;6313090;28;20290;-74
2023/07/21 13:56:17;;;;;;;1.50;1.50;;;;;;;;;;6311596;28;20274;-75
2023/07/21 13:59:20;;;;;;;1.30;1.30;;;;;;;;;;6313582;28;20243;-75
2023/07/21 14:02:24;;;;;;;1.48;1.40;;;;;;;;;;6313306;28;20285;-74
2023/07/21 14:05:30;;;;;;;2.15;2.05;;;;;;;;;;6310981;28;20322;-75
2023/07/21 14:08:34;;;;;;;3.05;1.70;;;;;;;;;;6312993;28;20238;-74
2023/07/21 14:11:38;;;;;;;1.42;1.20;;;;;;;;;;6313751;28;20527;-74
2023/07/21 14:14:42;;;;;;;1.75;1.20;;;;;;;;;;6337985;28;20234;-74
2023/07/21 14:17:46;;;;;;;1.42;1.40;;;;;;;;;;6337746;28;20243;-73
2023/07/21 14:20:51;;;;;;;1.70;1.60;;;;;;;;;;6337752;28;20258;-74
2023/07/21 14:23:55;;;;;;;1.50;1.40;;;;;;;;;;6338181;28;20242;-75
2023/07/21 14:27:01;;;;;;;2.10;1.88;;;;;;;;;;6337609;28;20246;-75
2023/07/21 14:30:08;;;;;;;1.75;1.55;;;;;;;;;;6337712;28;20238;-75
2023/07/21 14:33:11;;;;;;;1.40;1.33;;;;;;;;;;6337593;28;20243;-76
2023/07/21 14:36:17;;;;;;;1.80;1.50;;;;;;;;;;6337228;28;20242;-75
2023/07/21 14:39:27;;;;;;;1.23;1.23;;;;;;;;;;6337512;28;20417;-75
2023/07/21 14:42:30;;;;;;;1.45;1.45;;;;;;;;;;6337143;28;20262;-75
2023/07/21 14:45:34;;;;;;;1.50;1.40;;;;;;;;;;6335965;28;20412;-75
2023/07/21 14:48:38;;;;;;;2.15;1.70;;;;;;;;;;6335900;28;20269;-75
2023/07/21 14:51:45;;;;;;;1.75;1.50;;;;;;;;;;6336686;28;20522;-75
2023/07/21 14:54:49;;;;;;;4.68;1.40;;;;;;;;;;6336792;28;20254;-75
2023/07/21 14:57:52;;;;;;;2.78;1.38;;;;;;;;;;6337033;28;20249;-75
2023/07/21 15:00:56;;;;;;;1.38;1.30;;;;;;;;;;6336842;28;20262;-75
2023/07/21 15:04:00;;;;;;;3.72;1.60;;;;;;;;;;6336340;28;20530;-74
2023/07/21 15:07:07;;;;;;;1.48;1.48;;;;;;;;;;6336703;28;20238;-74
2023/07/21 15:10:11;;;;;;;1.38;1.38;;;;;;;;;;6336453;28;20238;-74
2023/07/21 15:13:14;;;;;;;1.30;1.30;;;;;;;;;;6320835;28;20279;-74
2023/07/21 15:16:18;;;;;;;1.13;1.13;;;;;;;;;;6311154;28;20417;-74
2023/07/21 15:19:22;;;;;;;1.40;1.40;;;;;;;;;;6311541;28;20330;-74
2023/07/21 15:22:28;;;;;;;1.45;1.33;;;;;;;;;;6311138;28;20266;-73
2023/07/21 15:25:31;;;;;;;1.58;1.58;;;;;;;;;;6311685;28;20239;-74
2023/07/21 15:28:35;;;;;;;1.92;1.48;;;;;;;;;;6313466;28;20248;-74
2023/07/21 15:31:40;;;;;;;3.10;1.40;;;;;;;;;;6312893;28;20501;-74
2023/07/21 15:34:44;;;;;;;1.30;1.30;;;;;;;;;;6311221;28;20239;-74
2023/07/21 15:37:49;;;;;;;1.80;1.70;;;;;;;;;;6311046;28;20243;-74
2023/07/21 15:40:53;;;;;;;3.92;1.63;;;;;;;;;;6311104;28;20242;-74
2023/07/21 15:43:57;;;;;;;1.83;1.73;;;;;;;;;;6310604;28;20243;-73
2023/07/21 15:47:01;;;;;;;1.70;1.70;;;;;;;;;;6310543;28;20243;-73
2023/07/21 15:50:09;;;;;;;2.10;1.50;;;;;;;;;;6310660;28;20242;-74
2023/07/21 15:53:14;;;;;;;1.58;1.48;;;;;;;;;;6310821;28;20240;-74
2023/07/21 15:56:18;;;;;;;1.40;1.40;;;;;;;;;;6310169;28;20251;-74
2023/07/21 15:59:22;;;;;;;1.60;1.52;;;;;;;;;;6310523;28;20539;-75
2023/07/21 16:02:26;;;;;;;1.67;1.38;;;;;;;;;;6310520;28;20290;-75
2023/07/21 16:05:30;;;;;;;2.15;1.40;;;;;;;;;;6310037;28;20293;-74
2023/07/21 16:08:35;;;;;;;1.65;1.35;;;;;;;;;;6310240;28;20238;-74
2023/07/21 16:11:39;;;;;;;2.63;1.40;;;;;;;;;;6311106;28;20235;-74
2023/07/21 16:14:43;;;;;;;1.60;1.60;;;;;;;;;;6335280;28;20234;-74
2023/07/21 16:17:47;;;;;;;1.75;1.65;;;;;;;;;;6335599;28;20242;-74
2023/07/21 16:20:51;;;;;;;1.67;1.67;;;;;;;;;;6335628;28;20234;-74
2023/07/21 16:23:56;;;;;;;1.65;1.65;;;;;;;;;;6335098;28;20258;-74
2023/07/21 16:27:00;;;;;;;1.75;1.65;;;;;;;;;;6335789;28;20234;-75
2023/07/21 16:30:04;;;;;;;1.88;1.60;;;;;;;;;;6340828;28;20250;-75
2023/07/21 16:33:08;;;;;;;1.40;1.40;;;;;;;;;;6340736;28;20506;-74
2023/07/21 16:36:12;;;;;;;1.55;1.52;;;;;;;;;;6340523;28;20230;-74
2023/07/21 16:39:17;;;;;;;1.45;1.35;;;;;;;;;;6340235;28;20483;-73
2023/07/21 16:42:21;;;;;;;1.40;1.40;;;;;;;;;;6340115;28;20274;-75
2023/07/21 16:45:25;;;;;;;1.30;1.30;;;;;;;;;;6340106;28;20234;-73
2023/07/21 16:48:28;;;;;;;1.50;1.40;;;;;;;;;;6340513;28;20242;-73
2023/07/21 16:51:32;;;;;;;4.75;1.30;;;;;;;;;;6340085;28;20242;-75
2023/07/21 16:54:37;;;;;;;1.30;1.20;;;;;;;;;;6340819;28;20298;-73
2023/07/21 16:57:41;;;;;;;1.30;1.30;;;;;;;;;;6339811;28;20523;-73
2023/07/21 17:00:46;;;;;;;1.85;1.20;;;;;;;;;;6339688;28;20238;-73
2023/07/21 17:03:50;;;;;;;1.73;1.52;;;;;;;;;;6338118;28;20309;-74
2023/07/21 17:06:55;;;;;;;1.17;1.17;;;;;;;;;;6339465;28;20438;-74
2023/07/21 17:10:00;;;;;;;1.65;1.38;;;;;;;;;;6339434;28;20514;-74
2023/07/21 17:13:04;;;;;;;1.25;1.25;;;;;;;;;;6326777;28;20247;-74
2023/07/21 17:16:08;;;;;;;1.40;1.40;;;;;;;;;;6314377;28;20235;-74
2023/07/21 17:19:12;;;;;;;2.13;2.03;;;;;;;;;;6314034;28;20242;-74
2023/07/21 17:22:15;;;;;;;3.33;3.13;;;;;;;;;;6313634;28;20444;-74
2023/07/21 17:25:21;;;;;;;2.13;2.13;;;;;;;;;;6313628;28;20243;-74
2023/07/21 17:28:24;;;;;;;4.72;2.70;;;;;;;;;;6313730;28;20243;-75
2023/07/21 17:31:28;;;;;;;1.80;1.70;;;;;;;;;;6313610;28;20243;-74
2023/07/21 17:34:33;;;;;;;1.80;1.70;;;;;;;;;;6313803;28;20242;-74
2023/07/21 17:37:37;;;;;;;1.95;1.60;;;;;;;;;;6313787;28;20234;-74
2023/07/21 17:40:42;;;;;;;1.88;1.77;;;;;;;;;;6313024;28;20418;-74
2023/07/21 17:43:46;;;;;;;1.40;1.40;;;;;;;;;;6313474;28;20266;-74
2023/07/21 17:46:50;;;;;;;1.27;1.27;;;;;;;;;;6313499;28;20231;-75
2023/07/21 17:49:54;;;;;;;1.50;1.50;;;;;;;;;;6313860;28;20242;-74
2023/07/21 17:52:58;;;;;;;1.30;1.30;;;;;;;;;;6313670;28;20244;-74
2023/07/21 17:56:03;;;;;;;1.55;1.50;;;;;;;;;;6313369;28;20239;-75
2023/07/21 17:59:07;;;;;;;1.73;1.65;;;;;;;;;;6313749;28;20235;-74
2023/07/21 18:02:11;;;;;;;2.17;1.65;;;;;;;;;;6313203;28;20247;-73
2023/07/21 18:05:15;;;;;;;1.60;1.60;;;;;;;;;;6312747;28;20291;-73
2023/07/21 18:08:19;;;;;;;1.50;1.45;;;;;;;;;;6313226;28;20243;-73
2023/07/21 18:11:24;;;;;;;1.65;1.65;;;;;;;;;;6313301;28;20235;-75
2023/07/21 18:14:29;;;;;;;1.50;1.50;;;;;;;;;;6337359;28;20380;-73
2023/07/21 18:17:33;;;;;;;1.70;1.60;;;;;;;;;;6338128;28;20238;-74
2023/07/21 18:20:36;;;;;;;2.78;1.80;;;;;;;;;;6338137;28;20246;-73
2023/07/21 18:23:40;;;;;;;1.83;1.83;;;;;;;;;;6337577;28;20265;-73
2023/07/21 18:26:45;;;;;;;2.42;1.70;;;;;;;;;;6338197;28;20247;-73
2023/07/21 18:29:49;;;;;;;4.53;2.10;;;;;;;;;;6338190;28;20238;-75
2023/07/21 18:32:53;;;;;;;5.78;1.90;;;;;;;;;;6337970;28;20234;-74
2023/07/21 18:35:57;;;;;;;3.22;1.60;;;;;;;;;;6338347;28;20238;-74